createdAt,value
2018-05-11T00:00:19.459Z,9.80
2018-05-11T00:02:46.953Z,9.80
2018-05-11T00:05:14.428Z,9.80
2018-05-11T00:07:41.917Z,9.80
2018-05-11T00:10:10.154Z,9.80
2018-05-11T00:12:37.651Z,9.70
2018-05-11T00:15:05.122Z,9.80
2018-05-11T00:17:32.613Z,9.70
2018-05-11T00:20:00.087Z,9.70
2018-05-11T00:22:27.574Z,9.70
2018-05-11T00:24:55.884Z,9.60
2018-05-11T00:27:23.380Z,9.60
2018-05-11T00:29:50.853Z,9.60
2018-05-11T00:32:18.344Z,9.50
2018-05-11T00:34:46.589Z,9.50
2018-05-11T00:37:14.850Z,9.50
2018-05-11T00:39:42.322Z,9.40
2018-05-11T00:42:09.814Z,9.40
2018-05-11T00:44:38.050Z,9.40
2018-05-11T00:47:05.541Z,9.30
2018-05-11T00:49:33.782Z,9.30
2018-05-11T00:52:01.277Z,9.30
2018-05-11T00:54:29.517Z,9.30
2018-05-11T00:56:57.009Z,9.20
2018-05-11T00:59:25.261Z,9.30
2018-05-11T01:01:52.748Z,9.20
2018-05-11T01:04:20.993Z,9.20
2018-05-11T01:06:48.498Z,9.20
2018-05-11T01:09:15.988Z,9.20
2018-05-11T01:11:43.462Z,9.10
2018-05-11T01:14:10.957Z,9.10
2018-05-11T01:16:39.206Z,9.10
2018-05-11T01:19:06.693Z,9.10
2018-05-11T01:21:34.934Z,9.20
2018-05-11T01:24:02.425Z,9.10
2018-05-11T01:26:30.665Z,9.20
2018-05-11T01:28:58.152Z,9.10
2018-05-11T01:31:25.637Z,9.20
2018-05-11T01:33:53.914Z,9.30
2018-05-11T01:36:21.391Z,9.20
2018-05-11T01:38:48.877Z,9.30
2018-05-11T01:41:16.362Z,9.30
2018-05-11T01:43:43.853Z,9.30
2018-05-11T01:46:12.095Z,9.30
2018-05-11T01:48:39.580Z,9.20
2018-05-11T01:51:07.825Z,9.20
2018-05-11T01:53:35.319Z,9.20
2018-05-11T01:56:03.558Z,9.20
2018-05-11T01:58:31.052Z,9.20
2018-05-11T02:00:59.299Z,9.20
2018-05-11T02:03:26.811Z,9.10
2018-05-11T02:05:54.286Z,9.20
2018-05-11T02:08:21.806Z,9.20
2018-05-11T02:10:50.049Z,9.20
2018-05-11T02:13:17.549Z,9.10
2018-05-11T02:15:45.033Z,9.20
2018-05-11T02:18:12.529Z,9.20
2018-05-11T02:20:40.000Z,9.20
2018-05-11T02:23:07.475Z,9.20
2018-05-11T02:25:35.732Z,9.20
2018-05-11T02:28:03.209Z,9.10
2018-05-11T02:30:31.473Z,9.30
2018-05-11T02:32:58.948Z,9.20
2018-05-11T02:35:27.211Z,9.20
2018-05-11T02:37:54.685Z,9.20
2018-05-11T02:40:22.948Z,9.20
2018-05-11T02:42:51.196Z,9.20
2018-05-11T02:45:18.694Z,9.10
2018-05-11T02:47:46.952Z,9.10
2018-05-11T02:50:14.455Z,9.00
2018-05-11T02:52:41.933Z,9.10
2018-05-11T02:55:09.433Z,9.00
2018-05-11T02:57:36.912Z,9.00
2018-05-11T03:00:05.169Z,8.90
2018-05-11T03:02:32.649Z,8.80
2018-05-11T03:05:00.906Z,8.80
2018-05-11T03:07:28.378Z,8.70
2018-05-11T03:09:56.637Z,8.70
2018-05-11T03:12:24.118Z,8.60
2018-05-11T03:14:52.384Z,8.60
2018-05-11T03:17:19.853Z,8.60
2018-05-11T03:19:48.121Z,8.60
2018-05-11T03:22:16.373Z,8.50
2018-05-11T03:24:43.861Z,8.50
2018-05-11T03:27:12.109Z,8.50
2018-05-11T03:29:39.601Z,8.40
2018-05-11T03:32:07.845Z,8.40
2018-05-11T03:34:35.325Z,8.30
2018-05-11T03:37:04.336Z,8.20
2018-05-11T03:39:32.578Z,8.20
2018-05-11T03:42:00.076Z,8.10
2018-05-11T03:44:28.321Z,8.20
2018-05-11T03:46:55.813Z,8.10
2018-05-11T03:49:24.061Z,8.10
2018-05-11T03:51:51.556Z,8.00
2018-05-11T03:54:19.037Z,8.00
2018-05-11T03:56:46.533Z,7.90
2018-05-11T03:59:14.010Z,7.80
2018-05-11T04:01:53.413Z,7.80
2018-05-11T04:04:32.908Z,7.70
2018-05-11T04:07:12.994Z,7.80
2018-05-11T04:09:40.470Z,7.70
2018-05-11T04:12:07.961Z,7.80
2018-05-11T04:14:37.104Z,7.70
2018-05-11T04:17:04.598Z,7.60
2018-05-11T04:19:32.074Z,7.60
2018-05-11T04:21:59.610Z,7.60
2018-05-11T04:24:27.087Z,7.50
2018-05-11T04:26:54.578Z,7.50
2018-05-11T04:29:22.892Z,7.50
2018-05-11T04:31:50.389Z,7.60
2018-05-11T04:34:17.870Z,7.60
2018-05-11T04:36:46.132Z,7.70
2018-05-11T04:39:14.387Z,7.80
2018-05-11T04:41:42.333Z,7.70
2018-05-11T04:44:09.823Z,7.80
2018-05-11T04:46:37.320Z,7.80
2018-05-11T04:49:04.793Z,7.90
2018-05-11T04:51:32.291Z,7.90
2018-05-11T04:53:59.769Z,7.80
2018-05-11T04:56:28.033Z,7.90
2018-05-11T04:58:55.502Z,7.80
2018-05-11T05:01:22.978Z,7.90
2018-05-11T05:03:51.337Z,7.90
2018-05-11T05:06:18.809Z,7.90
2018-05-11T05:08:47.066Z,8.00
2018-05-11T05:11:14.545Z,8.00
2018-05-11T05:13:42.806Z,8.20
2018-05-11T05:16:10.277Z,8.20
2018-05-11T05:18:38.548Z,8.40
2018-05-11T05:21:06.025Z,8.40
2018-05-11T05:23:34.280Z,8.70
2018-05-11T05:26:01.757Z,8.60
2018-05-11T05:28:30.023Z,8.80
2018-05-11T05:30:58.269Z,8.90
2018-05-11T05:33:25.761Z,8.90
2018-05-11T05:35:54.409Z,9.10
2018-05-11T05:38:21.914Z,9.10
2018-05-11T05:40:50.165Z,9.40
2018-05-11T05:43:17.657Z,9.30
2018-05-11T05:45:46.006Z,9.70
2018-05-11T05:48:13.433Z,9.60
2018-05-11T05:50:40.908Z,9.80
2018-05-11T05:53:08.417Z,10.00
2018-05-11T05:55:35.901Z,10.20
2018-05-11T05:58:03.394Z,10.30
2018-05-11T06:00:30.878Z,10.50
2018-05-11T06:02:59.136Z,10.70
2018-05-11T06:05:26.662Z,10.70
2018-05-11T06:07:54.925Z,11.20
2018-05-11T06:10:22.406Z,11.10
2018-05-11T06:12:49.909Z,11.40
2018-05-11T06:15:18.157Z,11.80
2018-05-11T06:17:45.703Z,11.70
2018-05-11T06:20:13.165Z,12.00
2018-05-11T06:22:40.655Z,12.20
2018-05-11T06:25:08.787Z,12.30
2018-05-11T06:27:36.277Z,12.50
2018-05-11T06:30:03.769Z,12.60
2018-05-11T06:32:32.033Z,12.90
2018-05-11T06:35:00.301Z,13.00
2018-05-11T06:37:27.774Z,12.90
2018-05-11T06:39:56.040Z,13.10
2018-05-11T06:42:23.518Z,13.10
2018-05-11T06:44:51.796Z,13.20
2018-05-11T06:47:20.047Z,13.40
2018-05-11T06:49:47.541Z,13.30
2018-05-11T06:52:15.025Z,13.40
2018-05-11T06:54:42.637Z,13.50
2018-05-11T06:57:10.896Z,13.70
2018-05-11T06:59:38.397Z,13.60
2018-05-11T07:02:06.652Z,13.90
2018-05-11T07:04:34.918Z,14.00
2018-05-11T07:07:02.435Z,13.90
2018-05-11T07:09:29.912Z,14.00
2018-05-11T07:11:57.394Z,14.20
2018-05-11T07:14:24.899Z,14.20
2018-05-11T07:16:52.389Z,14.30
2018-05-11T07:19:19.907Z,14.40
2018-05-11T07:21:48.165Z,14.50
2018-05-11T07:24:16.418Z,14.60
2018-05-11T07:26:43.917Z,14.50
2018-05-11T07:29:12.161Z,14.90
2018-05-11T07:31:39.656Z,14.80
2018-05-11T07:34:07.906Z,15.00
2018-05-11T07:36:36.181Z,15.00
2018-05-11T07:39:03.723Z,14.90
2018-05-11T07:41:31.173Z,15.00
2018-05-11T07:43:58.741Z,15.00
2018-05-11T07:46:26.940Z,14.90
2018-05-11T07:48:55.197Z,15.10
2018-05-11T07:51:22.698Z,15.00
2018-05-11T07:53:50.948Z,15.30
2018-05-11T07:56:18.449Z,15.20
2018-05-11T07:58:45.942Z,15.20
2018-05-11T08:01:13.449Z,15.10
2018-05-11T08:03:41.699Z,15.00
2018-05-11T08:06:09.205Z,14.90
2018-05-11T08:08:36.693Z,15.00
2018-05-11T08:11:04.193Z,14.90
2018-05-11T08:13:32.445Z,15.00
2018-05-11T08:15:59.946Z,15.00
2018-05-11T08:18:27.451Z,15.00
2018-05-11T08:20:54.953Z,15.10
2018-05-11T08:23:23.204Z,15.50
2018-05-11T08:25:50.707Z,15.50
2018-05-11T08:28:18.193Z,15.70
2018-05-11T08:30:45.693Z,15.70
2018-05-11T08:33:13.185Z,15.80
2018-05-11T08:35:40.696Z,15.80
2018-05-11T08:38:08.176Z,15.70
2018-05-11T08:40:36.438Z,15.60
2018-05-11T08:43:03.946Z,15.60
2018-05-11T08:45:31.431Z,15.50
2018-05-11T08:47:58.935Z,15.40
2018-05-11T08:50:27.194Z,15.30
2018-05-11T08:52:54.688Z,15.30
2018-05-11T08:55:22.929Z,15.40
2018-05-11T08:57:50.420Z,15.30
2018-05-11T09:00:17.909Z,15.40
2018-05-11T09:02:45.405Z,15.50
2018-05-11T09:05:12.888Z,15.60
2018-05-11T09:07:41.157Z,15.50
2018-05-11T09:10:09.410Z,15.30
2018-05-11T09:12:36.910Z,15.30
2018-05-11T09:15:05.169Z,15.30
2018-05-11T09:17:32.675Z,15.30
2018-05-11T09:20:00.161Z,15.50
2018-05-11T09:22:27.691Z,15.60
2018-05-11T09:24:55.180Z,15.70
2018-05-11T09:27:22.677Z,15.80
2018-05-11T09:29:50.929Z,15.90
2018-05-11T09:32:18.425Z,15.90
2018-05-11T09:34:46.678Z,15.80
2018-05-11T09:37:14.186Z,15.80
2018-05-11T09:39:41.738Z,15.80
2018-05-11T09:42:09.161Z,15.70
2018-05-11T09:44:37.425Z,15.50
2018-05-11T09:47:04.953Z,15.50
2018-05-11T09:49:32.504Z,15.50
2018-05-11T09:52:00.709Z,15.50
2018-05-11T09:54:28.211Z,15.40
2018-05-11T09:56:56.460Z,15.50
2018-05-11T09:59:23.952Z,15.50
2018-05-11T10:01:51.473Z,15.60
2018-05-11T10:04:18.966Z,15.90
2018-05-11T10:06:47.216Z,16.30
2018-05-11T10:09:14.713Z,16.30
2018-05-11T10:11:42.193Z,16.70
2018-05-11T10:14:09.690Z,17.00
2018-05-11T10:16:37.168Z,17.20
2018-05-11T10:19:05.442Z,17.60
2018-05-11T10:21:33.688Z,17.50
2018-05-11T10:24:01.201Z,17.50
2018-05-11T10:26:28.717Z,17.50
2018-05-11T10:28:56.280Z,17.40
2018-05-11T10:31:23.717Z,17.30
2018-05-11T10:33:51.217Z,17.20
2018-05-11T10:36:19.464Z,17.00
2018-05-11T10:38:46.961Z,16.90
2018-05-11T10:41:15.210Z,16.90
2018-05-11T10:43:42.713Z,16.80
2018-05-11T10:46:10.194Z,16.90
2018-05-11T10:48:37.749Z,16.90
2018-05-11T10:51:05.203Z,17.00
2018-05-11T10:53:32.680Z,17.20
2018-05-11T10:56:00.173Z,17.40
2018-05-11T10:58:27.661Z,17.40
2018-05-11T11:00:55.933Z,17.60
2018-05-11T11:03:24.185Z,17.70
2018-05-11T11:05:51.680Z,17.70
2018-05-11T11:08:19.164Z,17.80
2018-05-11T11:10:46.674Z,18.00
2018-05-11T11:13:14.921Z,18.30
2018-05-11T11:15:42.428Z,18.30
2018-05-11T11:18:09.923Z,18.40
2018-05-11T11:20:37.429Z,18.30
2018-05-11T11:23:05.677Z,18.30
2018-05-11T11:25:33.173Z,18.30
2018-05-11T11:28:01.426Z,18.50
2018-05-11T11:30:28.930Z,18.40
2018-05-11T11:32:56.425Z,18.40
2018-05-11T11:35:23.928Z,18.40
2018-05-11T11:37:52.177Z,18.20
2018-05-11T11:40:19.678Z,18.20
2018-05-11T11:42:47.934Z,17.90
2018-05-11T11:45:16.201Z,17.90
2018-05-11T11:47:43.686Z,17.80
2018-05-11T11:50:11.953Z,18.00
2018-05-11T11:52:40.204Z,18.10
2018-05-11T11:55:07.707Z,18.10
2018-05-11T11:57:35.189Z,18.20
2018-05-11T12:00:02.685Z,18.20
2018-05-11T12:02:30.175Z,18.20
2018-05-11T12:04:58.432Z,18.20
2018-05-11T12:07:26.703Z,18.20
2018-05-11T12:09:54.186Z,18.10
2018-05-11T12:12:22.457Z,18.20
2018-05-11T12:14:50.704Z,18.30
2018-05-11T12:17:18.200Z,18.30
2018-05-11T12:19:45.677Z,18.40
2018-05-11T12:22:13.176Z,18.40
2018-05-11T12:24:40.656Z,18.50
2018-05-11T12:27:08.162Z,18.50
2018-05-11T12:29:35.647Z,18.40
2018-05-11T12:32:03.153Z,18.30
2018-05-11T12:34:31.398Z,18.10
2018-05-11T12:36:58.897Z,18.10
2018-05-11T12:39:27.140Z,18.30
2018-05-11T12:41:54.645Z,18.20
2018-05-11T12:44:22.130Z,18.30
2018-05-11T12:46:49.625Z,18.40
2018-05-11T12:49:17.107Z,18.50
2018-05-11T12:51:45.373Z,18.80
2018-05-11T12:54:13.617Z,18.90
2018-05-11T12:56:41.114Z,18.80
2018-05-11T12:59:09.422Z,19.00
2018-05-11T13:01:36.920Z,18.90
2018-05-11T13:04:04.406Z,19.00
2018-05-11T13:06:32.681Z,18.90
2018-05-11T13:09:00.934Z,18.90
2018-05-11T13:11:28.416Z,18.80
2018-05-11T13:13:56.682Z,19.00
2018-05-11T13:16:24.165Z,18.90
2018-05-11T13:18:52.432Z,18.70
2018-05-11T13:21:20.680Z,18.60
2018-05-11T13:23:48.177Z,18.60
2018-05-11T13:26:16.481Z,18.60
2018-05-11T13:28:43.983Z,18.50
2018-05-11T13:31:11.477Z,18.50
2018-05-11T13:33:38.976Z,18.60
2018-05-11T13:36:06.467Z,18.60
2018-05-11T13:38:33.961Z,18.60
2018-05-11T13:41:02.205Z,18.80
2018-05-11T13:43:31.212Z,19.00
2018-05-11T13:45:59.484Z,19.20
2018-05-11T13:48:27.071Z,19.20
2018-05-11T13:50:54.482Z,19.40
2018-05-11T13:53:21.986Z,19.50
2018-05-11T13:55:49.469Z,19.50
2018-05-11T13:58:16.961Z,19.60
2018-05-11T14:00:44.444Z,19.60
2018-05-11T14:03:12.716Z,19.50
2018-05-11T14:05:41.704Z,19.50
2018-05-11T14:08:09.205Z,19.50
2018-05-11T14:10:36.685Z,19.60
2018-05-11T14:13:04.185Z,19.70
2018-05-11T14:15:31.664Z,19.80
2018-05-11T14:17:59.934Z,19.80
2018-05-11T14:20:28.197Z,19.80
2018-05-11T14:22:55.800Z,19.70
2018-05-11T14:25:23.289Z,19.70
2018-05-11T14:27:50.786Z,19.60
2018-05-11T14:30:19.053Z,19.50
2018-05-11T14:32:46.538Z,19.50
2018-05-11T14:35:14.043Z,19.50
2018-05-11T14:37:41.529Z,19.50
2018-05-11T14:40:09.023Z,19.40
2018-05-11T14:42:36.504Z,19.20
2018-05-11T14:45:04.011Z,19.10
2018-05-11T14:47:32.266Z,19.00
2018-05-11T14:49:59.769Z,18.90
2018-05-11T14:52:28.031Z,18.90
2018-05-11T14:54:56.299Z,18.90
2018-05-11T14:57:23.785Z,18.90
2018-05-11T14:59:52.045Z,19.00
2018-05-11T15:02:20.298Z,18.90
2018-05-11T15:04:48.638Z,18.90
2018-05-11T15:07:16.117Z,18.90
2018-05-11T15:09:43.613Z,19.00
2018-05-11T15:12:11.861Z,19.20
2018-05-11T15:14:39.357Z,19.10
2018-05-11T15:17:07.605Z,19.30
2018-05-11T15:19:35.105Z,19.30
2018-05-11T15:22:03.356Z,19.50
2018-05-11T15:24:30.867Z,19.50
2018-05-11T15:26:58.357Z,19.60
2018-05-11T15:29:25.863Z,19.80
2018-05-11T15:31:53.347Z,19.90
2018-05-11T15:34:20.857Z,20.00
2018-05-11T15:36:49.162Z,20.00
2018-05-11T15:39:17.426Z,19.80
2018-05-11T15:41:45.684Z,19.60
2018-05-11T15:44:13.197Z,19.60
2018-05-11T15:46:40.684Z,19.50
2018-05-11T15:49:08.170Z,19.50
2018-05-11T15:51:36.481Z,19.30
2018-05-11T15:54:03.969Z,19.30
2018-05-11T15:56:31.466Z,19.40
2018-05-11T15:58:59.780Z,19.60
2018-05-11T16:01:27.230Z,19.60
2018-05-11T16:03:54.715Z,19.80
2018-05-11T16:06:22.218Z,19.90
2018-05-11T16:08:50.475Z,19.90
2018-05-11T16:11:18.090Z,19.80
2018-05-11T16:13:45.589Z,19.90
2018-05-11T16:16:13.085Z,19.90
2018-05-11T16:18:41.332Z,19.80
2018-05-11T16:21:08.825Z,19.80
2018-05-11T16:23:37.065Z,19.90
2018-05-11T16:26:04.561Z,19.80
2018-05-11T16:28:32.810Z,19.70
2018-05-11T16:31:00.309Z,19.60
2018-05-11T16:33:28.549Z,19.60
2018-05-11T16:35:56.058Z,19.60
2018-05-11T16:38:23.628Z,19.60
2018-05-11T16:40:51.133Z,19.70
2018-05-11T16:43:18.617Z,19.90
2018-05-11T16:45:46.886Z,19.80
2018-05-11T16:48:15.138Z,19.70
2018-05-11T16:50:42.641Z,19.70
2018-05-11T16:53:10.121Z,19.60
2018-05-11T16:55:37.597Z,19.70
2018-05-11T16:58:05.289Z,19.90
2018-05-11T17:00:32.773Z,20.00
2018-05-11T17:03:01.035Z,20.60
2018-05-11T17:05:29.294Z,20.80
2018-05-11T17:07:56.794Z,20.80
2018-05-11T17:10:25.041Z,21.00
2018-05-11T17:12:53.317Z,21.00
2018-05-11T17:15:20.822Z,20.90
2018-05-11T17:17:48.328Z,21.00
2018-05-11T17:20:15.817Z,21.10
2018-05-11T17:22:43.437Z,21.10
2018-05-11T17:25:10.824Z,21.20
2018-05-11T17:27:39.101Z,21.00
2018-05-11T17:30:07.354Z,20.90
2018-05-11T17:32:34.973Z,20.80
2018-05-11T17:35:02.463Z,20.80
2018-05-11T17:37:29.973Z,20.80
2018-05-11T17:39:58.239Z,21.00
2018-05-11T17:42:26.522Z,21.00
2018-05-11T17:44:54.021Z,20.90
2018-05-11T17:47:21.539Z,20.90
2018-05-11T17:49:49.801Z,20.50
2018-05-11T17:52:18.081Z,20.40
2018-05-11T17:54:45.574Z,20.30
2018-05-11T17:57:13.073Z,20.20
2018-05-11T17:59:40.674Z,20.10
2018-05-11T18:02:08.925Z,19.90
2018-05-11T18:04:36.631Z,19.80
2018-05-11T18:07:04.168Z,19.80
2018-05-11T18:09:32.433Z,19.80
2018-05-11T18:11:59.910Z,19.70
2018-05-11T18:14:28.186Z,19.40
2018-05-11T18:16:56.443Z,19.20
2018-05-11T18:19:23.942Z,19.20
2018-05-11T18:21:51.426Z,19.10
2018-05-11T18:24:18.928Z,18.90
2018-05-11T18:26:46.422Z,18.80
2018-05-11T18:29:13.961Z,18.70
2018-05-11T18:31:42.221Z,18.50
2018-05-11T18:34:09.725Z,18.50
2018-05-11T18:36:37.213Z,18.40
2018-05-11T18:39:05.636Z,18.30
2018-05-11T18:41:33.899Z,18.10
2018-05-11T18:44:01.402Z,18.10
2018-05-11T18:46:28.893Z,18.00
2018-05-11T18:48:56.403Z,17.90
2018-05-11T18:51:24.649Z,17.80
2018-05-11T18:53:52.454Z,17.70
2018-05-11T18:56:19.646Z,17.70
2018-05-11T18:58:47.145Z,17.60
2018-05-11T19:01:15.416Z,17.50
2018-05-11T19:03:43.693Z,17.40
2018-05-11T19:06:11.955Z,17.40
2018-05-11T19:08:39.466Z,17.30
2018-05-11T19:11:06.953Z,17.30
2018-05-11T19:13:34.434Z,17.30
2018-05-11T19:16:01.925Z,17.20
2018-05-11T19:18:30.172Z,17.10
2018-05-11T19:20:57.668Z,17.10
2018-05-11T19:23:25.920Z,17.00
2018-05-11T19:25:54.928Z,16.90
2018-05-11T19:28:23.173Z,16.90
2018-05-11T19:31:01.948Z,16.90
2018-05-11T19:33:29.437Z,16.90
2018-05-11T19:35:56.943Z,16.80
2018-05-11T19:38:25.185Z,16.70
2018-05-11T19:40:52.686Z,16.60
2018-05-11T19:43:20.181Z,16.60
2018-05-11T19:45:47.681Z,16.50
2018-05-11T19:48:15.169Z,16.50
2018-05-11T19:50:43.429Z,16.30
2018-05-11T19:53:11.681Z,16.30
2018-05-11T19:55:39.198Z,16.20
2018-05-11T19:58:06.685Z,16.20
2018-05-11T20:00:34.189Z,16.10
2018-05-11T20:03:02.439Z,16.00
2018-05-11T20:05:29.954Z,15.90
2018-05-11T20:07:57.453Z,15.90
2018-05-11T20:10:25.722Z,15.70
2018-05-11T20:12:53.205Z,15.70
2018-05-11T20:15:20.697Z,15.60
2018-05-11T20:17:48.180Z,15.50
2018-05-11T20:20:15.686Z,15.50
2018-05-11T20:22:43.165Z,15.40
2018-05-11T20:25:11.430Z,15.20
2018-05-11T20:27:39.683Z,15.20
2018-05-11T20:30:07.185Z,15.10
2018-05-11T20:32:34.756Z,15.20
2018-05-11T20:35:02.217Z,15.10
2018-05-11T20:37:29.703Z,15.00
2018-05-11T20:39:57.181Z,14.90
2018-05-11T20:42:24.687Z,14.90
2018-05-11T20:44:52.260Z,14.80
2018-05-11T20:47:19.799Z,14.80
2018-05-11T20:49:47.289Z,14.80
2018-05-11T20:52:14.801Z,14.70
2018-05-11T20:54:42.281Z,14.60
2018-05-11T20:57:10.547Z,14.50
2018-05-11T20:59:38.798Z,14.40
2018-05-11T21:02:06.296Z,14.40
2018-05-11T21:04:33.782Z,14.30
2018-05-11T21:07:01.273Z,14.30
2018-05-11T21:09:28.760Z,14.20
2018-05-11T21:11:57.030Z,14.10
2018-05-11T21:14:25.346Z,14.00
2018-05-11T21:16:52.794Z,14.00
2018-05-11T21:19:20.291Z,14.00
2018-05-11T21:21:47.803Z,13.90
2018-05-11T21:24:16.046Z,13.70
2018-05-11T21:26:43.549Z,13.60
2018-05-11T21:29:11.038Z,13.70
2018-05-11T21:31:38.537Z,13.60
2018-05-11T21:34:06.859Z,13.50
2018-05-11T21:36:34.356Z,13.40
2018-05-11T21:39:01.839Z,13.40
2018-05-11T21:41:30.111Z,13.30
2018-05-11T21:43:57.589Z,13.30
2018-05-11T21:46:25.854Z,13.20
2018-05-11T21:48:54.107Z,13.20
2018-05-11T21:51:21.621Z,13.20
2018-05-11T21:53:49.105Z,13.20
2018-05-11T21:56:16.582Z,13.20
2018-05-11T21:58:44.078Z,13.20
2018-05-11T22:01:12.321Z,13.10
2018-05-11T22:03:39.826Z,13.10
2018-05-11T22:06:07.313Z,13.10
2018-05-11T22:08:34.813Z,13.00
2018-05-11T22:11:03.797Z,12.90
2018-05-11T22:13:31.345Z,12.90
2018-05-11T22:15:58.801Z,12.90
2018-05-11T22:18:26.302Z,12.90
2018-05-11T22:20:54.549Z,12.80
2018-05-11T22:23:22.043Z,12.70
2018-05-11T22:25:49.532Z,12.70
2018-05-11T22:28:17.026Z,12.70
2018-05-11T22:30:44.513Z,12.60
2018-05-11T22:33:12.777Z,12.50
2018-05-11T22:35:41.021Z,12.50
2018-05-11T22:38:08.521Z,12.40
2018-05-11T22:40:36.769Z,12.30
2018-05-11T22:43:04.273Z,12.20
2018-05-11T22:45:32.524Z,12.20
2018-05-11T22:48:00.798Z,12.10
2018-05-11T22:50:28.274Z,12.10
2018-05-11T22:52:56.534Z,12.10
2018-05-11T22:55:24.009Z,12.00
2018-05-11T22:57:52.273Z,12.10
2018-05-11T23:00:25.085Z,12.00
2018-05-11T23:02:53.349Z,12.00
2018-05-11T23:05:21.610Z,12.00
2018-05-11T23:07:49.110Z,11.90
2018-05-11T23:10:16.593Z,12.00
2018-05-11T23:12:44.078Z,11.90
2018-05-11T23:15:11.584Z,11.80
2018-05-11T23:17:39.070Z,11.70
2018-05-11T23:20:06.568Z,11.70
2018-05-11T23:22:36.025Z,11.60
2018-05-11T23:25:03.521Z,11.50
2018-05-11T23:27:31.005Z,11.50
2018-05-11T23:29:59.270Z,11.40
2018-05-11T23:32:27.521Z,11.40
2018-05-11T23:34:55.792Z,11.40
2018-05-11T23:37:23.274Z,11.30
2018-05-11T23:39:50.764Z,11.40
2018-05-11T23:42:18.248Z,11.40
2018-05-11T23:44:45.753Z,11.30
2018-05-11T23:47:13.233Z,11.30
2018-05-11T23:49:41.525Z,11.20
2018-05-11T23:52:08.990Z,11.20
2018-05-11T23:54:36.488Z,11.20
2018-05-11T23:57:03.974Z,11.10
2018-05-11T23:59:31.477Z,11.10
